sensor_id;sensor_type;location;lat;lon;timestamp;temperature;humidity
2497;DHT22;1259;48.306;14.374;2022-07-06T00:00:08;19.30;99.90
2497;DHT22;1259;48.306;14.374;2022-07-06T00:02:36;19.40;99.90
2497;DHT22;1259;48.306;14.374;2022-07-06T00:05:04;19.30;99.90
2497;DHT22;1259;48.306;14.374;2022-07-06T00:07:32;19.30;99.90
2497;DHT22;1259;48.306;14.374;2022-07-06T00:09:59;19.20;99.90
2497;DHT22;1259;48.306;14.374;2022-07-06T00:12:26;19.10;99.90
2497;DHT22;1259;48.306;14.374;2022-07-06T00:14:53;19.10;99.90
2497;DHT22;1259;48.306;14.374;2022-07-06T00:17:20;19.10;99.90
2497;DHT22;1259;48.306;14.374;2022-07-06T00:19:47;19.20;99.90
2497;DHT22;1259;48.306;14.374;2022-07-06T00:22:14;19.20;99.90
2497;DHT22;1259;48.306;14.374;2022-07-06T00:24:43;19.20;99.90
2497;DHT22;1259;48.306;14.374;2022-07-06T00:27:10;19.00;99.90
2497;DHT22;1259;48.306;14.374;2022-07-06T00:29:36;19.00;99.90
2497;DHT22;1259;48.306;14.374;2022-07-06T00:32:04;18.90;99.90
2497;DHT22;1259;48.306;14.374;2022-07-06T00:34:31;18.90;99.90
2497;DHT22;1259;48.306;14.374;2022-07-06T00:36:58;19.00;99.90
2497;DHT22;1259;48.306;14.374;2022-07-06T00:39:25;19.00;99.90
2497;DHT22;1259;48.306;14.374;2022-07-06T00:41:56;18.80;99.90
2497;DHT22;1259;48.306;14.374;2022-07-06T00:44:23;18.80;99.90
2497;DHT22;1259;48.306;14.374;2022-07-06T00:46:50;18.90;99.90
2497;DHT22;1259;48.306;14.374;2022-07-06T00:49:17;19.00;99.90
2497;DHT22;1259;48.306;14.374;2022-07-06T00:51:58;18.90;99.90
2497;DHT22;1259;48.306;14.374;2022-07-06T00:54:26;18.90;99.90
2497;DHT22;1259;48.306;14.374;2022-07-06T00:56:56;18.90;99.90
2497;DHT22;1259;48.306;14.374;2022-07-06T00:59:23;18.80;99.90
2497;DHT22;1259;48.306;14.374;2022-07-06T01:01:50;18.90;99.90
2497;DHT22;1259;48.306;14.374;2022-07-06T01:04:17;18.80;99.90
2497;DHT22;1259;48.306;14.374;2022-07-06T01:06:45;18.80;99.90
2497;DHT22;1259;48.306;14.374;2022-07-06T01:09:12;18.80;99.90
2497;DHT22;1259;48.306;14.374;2022-07-06T01:11:39;18.60;99.90
2497;DHT22;1259;48.306;14.374;2022-07-06T01:14:08;18.60;99.90
2497;DHT22;1259;48.306;14.374;2022-07-06T01:16:35;18.60;99.90
2497;DHT22;1259;48.306;14.374;2022-07-06T01:19:03;18.50;99.90
2497;DHT22;1259;48.306;14.374;2022-07-06T01:21:31;18.50;99.90
2497;DHT22;1259;48.306;14.374;2022-07-06T01:23:58;18.60;99.90
2497;DHT22;1259;48.306;14.374;2022-07-06T01:26:25;18.50;99.90
2497;DHT22;1259;48.306;14.374;2022-07-06T01:28:52;18.60;99.90
2497;DHT22;1259;48.306;14.374;2022-07-06T01:31:21;18.50;99.90
2497;DHT22;1259;48.306;14.374;2022-07-06T01:33:49;18.50;99.90
2497;DHT22;1259;48.306;14.374;2022-07-06T01:36:16;18.40;99.90
2497;DHT22;1259;48.306;14.374;2022-07-06T01:38:45;18.30;99.90
2497;DHT22;1259;48.306;14.374;2022-07-06T01:41:12;18.40;99.90
2497;DHT22;1259;48.306;14.374;2022-07-06T01:43:39;18.40;99.90
2497;DHT22;1259;48.306;14.374;2022-07-06T01:46:06;18.40;99.90
2497;DHT22;1259;48.306;14.374;2022-07-06T01:48:33;18.30;99.90
2497;DHT22;1259;48.306;14.374;2022-07-06T01:51:00;18.20;99.90
2497;DHT22;1259;48.306;14.374;2022-07-06T01:53:27;18.10;99.90
2497;DHT22;1259;48.306;14.374;2022-07-06T01:55:56;17.80;99.90
2497;DHT22;1259;48.306;14.374;2022-07-06T01:58:23;17.70;99.90
2497;DHT22;1259;48.306;14.374;2022-07-06T02:00:50;17.60;99.90
2497;DHT22;1259;48.306;14.374;2022-07-06T02:03:17;17.70;99.90
2497;DHT22;1259;48.306;14.374;2022-07-06T02:05:44;17.60;99.90
2497;DHT22;1259;48.306;14.374;2022-07-06T02:08:11;17.70;99.90
2497;DHT22;1259;48.306;14.374;2022-07-06T02:10:37;17.70;99.90
2497;DHT22;1259;48.306;14.374;2022-07-06T02:13:07;17.60;99.90
2497;DHT22;1259;48.306;14.374;2022-07-06T02:15:34;17.50;99.90
2497;DHT22;1259;48.306;14.374;2022-07-06T02:18:01;17.60;99.90
2497;DHT22;1259;48.306;14.374;2022-07-06T02:20:27;17.50;99.90
2497;DHT22;1259;48.306;14.374;2022-07-06T02:22:54;17.60;99.90
2497;DHT22;1259;48.306;14.374;2022-07-06T02:25:21;17.60;99.90
2497;DHT22;1259;48.306;14.374;2022-07-06T02:27:48;17.70;99.90
2497;DHT22;1259;48.306;14.374;2022-07-06T02:30:17;17.60;99.90
2497;DHT22;1259;48.306;14.374;2022-07-06T02:32:44;17.60;99.90
2497;DHT22;1259;48.306;14.374;2022-07-06T02:35:11;17.50;99.90
2497;DHT22;1259;48.306;14.374;2022-07-06T02:37:38;17.50;99.90
2497;DHT22;1259;48.306;14.374;2022-07-06T02:40:06;17.70;99.90
2497;DHT22;1259;48.306;14.374;2022-07-06T02:42:34;17.70;99.90
2497;DHT22;1259;48.306;14.374;2022-07-06T02:45:01;17.60;99.90
2497;DHT22;1259;48.306;14.374;2022-07-06T02:47:29;17.70;99.90
2497;DHT22;1259;48.306;14.374;2022-07-06T02:49:56;17.70;99.90
2497;DHT22;1259;48.306;14.374;2022-07-06T02:52:23;17.50;99.90
2497;DHT22;1259;48.306;14.374;2022-07-06T02:54:50;17.60;99.90
2497;DHT22;1259;48.306;14.374;2022-07-06T02:57:17;17.40;99.90
2497;DHT22;1259;48.306;14.374;2022-07-06T02:59:44;17.40;99.90
2497;DHT22;1259;48.306;14.374;2022-07-06T03:02:11;17.30;99.90
2497;DHT22;1259;48.306;14.374;2022-07-06T03:04:40;17.20;99.90
2497;DHT22;1259;48.306;14.374;2022-07-06T03:07:07;17.40;99.90
2497;DHT22;1259;48.306;14.374;2022-07-06T03:09:34;17.50;99.90
2497;DHT22;1259;48.306;14.374;2022-07-06T03:12:01;17.50;99.90
2497;DHT22;1259;48.306;14.374;2022-07-06T03:14:28;17.50;99.90
2497;DHT22;1259;48.306;14.374;2022-07-06T03:16:55;17.60;99.90
2497;DHT22;1259;48.306;14.374;2022-07-06T03:19:22;17.40;99.90
2497;DHT22;1259;48.306;14.374;2022-07-06T03:21:50;17.50;99.90
2497;DHT22;1259;48.306;14.374;2022-07-06T03:24:17;17.50;99.90
2497;DHT22;1259;48.306;14.374;2022-07-06T03:26:44;17.40;99.90
2497;DHT22;1259;48.306;14.374;2022-07-06T03:29:11;17.50;99.90
2497;DHT22;1259;48.306;14.374;2022-07-06T03:31:38;17.30;99.90
2497;DHT22;1259;48.306;14.374;2022-07-06T03:34:05;17.40;99.90
2497;DHT22;1259;48.306;14.374;2022-07-06T03:36:32;17.30;99.90
2497;DHT22;1259;48.306;14.374;2022-07-06T03:39:01;17.40;99.90
2497;DHT22;1259;48.306;14.374;2022-07-06T03:41:28;17.40;99.90
2497;DHT22;1259;48.306;14.374;2022-07-06T03:43:55;17.40;99.90
2497;DHT22;1259;48.306;14.374;2022-07-06T03:46:22;17.30;99.90
2497;DHT22;1259;48.306;14.374;2022-07-06T03:48:49;17.20;99.90
2497;DHT22;1259;48.306;14.374;2022-07-06T03:51:16;17.20;99.90
2497;DHT22;1259;48.306;14.374;2022-07-06T03:53:43;17.30;99.90
2497;DHT22;1259;48.306;14.374;2022-07-06T03:56:11;17.40;99.90
2497;DHT22;1259;48.306;14.374;2022-07-06T03:58:59;17.40;99.90
2497;DHT22;1259;48.306;14.374;2022-07-06T04:01:27;17.50;99.90
2497;DHT22;1259;48.306;14.374;2022-07-06T04:03:55;17.60;99.90
2497;DHT22;1259;48.306;14.374;2022-07-06T04:06:22;17.70;99.90
2497;DHT22;1259;48.306;14.374;2022-07-06T04:08:49;17.70;99.90
2497;DHT22;1259;48.306;14.374;2022-07-06T04:11:17;17.80;99.90
2497;DHT22;1259;48.306;14.374;2022-07-06T04:13:44;17.90;99.90
2497;DHT22;1259;48.306;14.374;2022-07-06T04:16:11;17.90;99.90
2497;DHT22;1259;48.306;14.374;2022-07-06T04:18:38;18.00;99.90
2497;DHT22;1259;48.306;14.374;2022-07-06T04:21:06;18.10;99.90
2497;DHT22;1259;48.306;14.374;2022-07-06T04:23:33;18.10;99.90
2497;DHT22;1259;48.306;14.374;2022-07-06T04:25:59;18.10;99.90
2497;DHT22;1259;48.306;14.374;2022-07-06T04:28:28;18.10;99.90
2497;DHT22;1259;48.306;14.374;2022-07-06T04:30:55;18.10;99.90
2497;DHT22;1259;48.306;14.374;2022-07-06T04:33:22;18.10;99.90
2497;DHT22;1259;48.306;14.374;2022-07-06T04:35:49;18.20;99.90
2497;DHT22;1259;48.306;14.374;2022-07-06T04:38:16;18.20;99.90
2497;DHT22;1259;48.306;14.374;2022-07-06T04:40:43;18.20;99.90
2497;DHT22;1259;48.306;14.374;2022-07-06T04:43:12;18.30;99.90
2497;DHT22;1259;48.306;14.374;2022-07-06T04:45:40;18.30;99.90
2497;DHT22;1259;48.306;14.374;2022-07-06T04:48:07;18.20;99.90
2497;DHT22;1259;48.306;14.374;2022-07-06T04:50:34;18.30;99.90
2497;DHT22;1259;48.306;14.374;2022-07-06T04:53:02;18.40;99.90
2497;DHT22;1259;48.306;14.374;2022-07-06T04:55:29;18.50;99.90
2497;DHT22;1259;48.306;14.374;2022-07-06T04:57:56;18.50;99.90
2497;DHT22;1259;48.306;14.374;2022-07-06T05:00:23;18.50;99.90
2497;DHT22;1259;48.306;14.374;2022-07-06T05:02:52;18.60;99.90
2497;DHT22;1259;48.306;14.374;2022-07-06T05:05:19;18.60;99.90
2497;DHT22;1259;48.306;14.374;2022-07-06T05:07:45;18.60;99.90
2497;DHT22;1259;48.306;14.374;2022-07-06T05:10:13;18.60;99.90
2497;DHT22;1259;48.306;14.374;2022-07-06T05:12:40;18.70;99.90
2497;DHT22;1259;48.306;14.374;2022-07-06T05:15:08;18.70;99.90
2497;DHT22;1259;48.306;14.374;2022-07-06T05:17:35;18.70;99.90
2497;DHT22;1259;48.306;14.374;2022-07-06T05:20:05;18.80;99.90
2497;DHT22;1259;48.306;14.374;2022-07-06T05:22:33;18.80;99.90
2497;DHT22;1259;48.306;14.374;2022-07-06T05:25:00;18.80;99.90
2497;DHT22;1259;48.306;14.374;2022-07-06T05:27:26;18.90;99.90
2497;DHT22;1259;48.306;14.374;2022-07-06T05:29:53;19.00;99.90
2497;DHT22;1259;48.306;14.374;2022-07-06T05:32:20;19.00;99.90
2497;DHT22;1259;48.306;14.374;2022-07-06T05:34:50;19.10;99.90
2497;DHT22;1259;48.306;14.374;2022-07-06T05:37:18;19.10;99.90
2497;DHT22;1259;48.306;14.374;2022-07-06T05:39:45;19.10;99.90
2497;DHT22;1259;48.306;14.374;2022-07-06T05:42:15;18.90;99.90
2497;DHT22;1259;48.306;14.374;2022-07-06T05:44:42;19.00;99.90
2497;DHT22;1259;48.306;14.374;2022-07-06T05:47:09;19.20;99.90
2497;DHT22;1259;48.306;14.374;2022-07-06T05:49:58;19.30;99.90
2497;DHT22;1259;48.306;14.374;2022-07-06T05:52:43;19.40;99.90
2497;DHT22;1259;48.306;14.374;2022-07-06T05:55:12;19.40;99.90
2497;DHT22;1259;48.306;14.374;2022-07-06T05:57:40;19.60;99.90
2497;DHT22;1259;48.306;14.374;2022-07-06T06:00:10;19.70;99.90
2497;DHT22;1259;48.306;14.374;2022-07-06T06:02:38;19.80;99.90
2497;DHT22;1259;48.306;14.374;2022-07-06T06:05:07;19.90;99.90
2497;DHT22;1259;48.306;14.374;2022-07-06T06:07:34;19.90;99.90
2497;DHT22;1259;48.306;14.374;2022-07-06T06:10:05;20.00;99.90
2497;DHT22;1259;48.306;14.374;2022-07-06T06:12:32;20.00;99.90
2497;DHT22;1259;48.306;14.374;2022-07-06T06:14:59;20.20;99.90
2497;DHT22;1259;48.306;14.374;2022-07-06T06:17:27;20.10;99.90
2497;DHT22;1259;48.306;14.374;2022-07-06T06:19:54;20.40;99.90
2497;DHT22;1259;48.306;14.374;2022-07-06T06:22:20;20.50;99.90
2497;DHT22;1259;48.306;14.374;2022-07-06T06:24:48;20.40;99.90
2497;DHT22;1259;48.306;14.374;2022-07-06T06:27:16;20.70;99.90
2497;DHT22;1259;48.306;14.374;2022-07-06T06:29:43;20.80;99.90
2497;DHT22;1259;48.306;14.374;2022-07-06T06:32:11;20.90;99.90
2497;DHT22;1259;48.306;14.374;2022-07-06T06:34:38;21.00;99.90
2497;DHT22;1259;48.306;14.374;2022-07-06T06:37:05;21.00;99.90
2497;DHT22;1259;48.306;14.374;2022-07-06T06:39:32;20.90;99.90
2497;DHT22;1259;48.306;14.374;2022-07-06T06:41:59;20.80;99.90
2497;DHT22;1259;48.306;14.374;2022-07-06T06:44:27;20.90;99.90
2497;DHT22;1259;48.306;14.374;2022-07-06T06:46:55;21.10;99.90
2497;DHT22;1259;48.306;14.374;2022-07-06T06:49:22;21.20;99.90
2497;DHT22;1259;48.306;14.374;2022-07-06T06:51:49;21.20;99.90
2497;DHT22;1259;48.306;14.374;2022-07-06T06:54:15;21.40;99.90
2497;DHT22;1259;48.306;14.374;2022-07-06T06:56:42;21.40;99.90
2497;DHT22;1259;48.306;14.374;2022-07-06T06:59:09;21.50;99.90
2497;DHT22;1259;48.306;14.374;2022-07-06T07:01:38;21.60;99.90
2497;DHT22;1259;48.306;14.374;2022-07-06T07:04:05;21.70;99.90
2497;DHT22;1259;48.306;14.374;2022-07-06T07:06:32;22.10;99.90
2497;DHT22;1259;48.306;14.374;2022-07-06T07:08:59;22.00;99.90
2497;DHT22;1259;48.306;14.374;2022-07-06T07:11:26;22.20;99.90
2497;DHT22;1259;48.306;14.374;2022-07-06T07:13:53;22.40;99.90
2497;DHT22;1259;48.306;14.374;2022-07-06T07:16:20;22.20;99.90
2497;DHT22;1259;48.306;14.374;2022-07-06T07:18:50;22.30;99.90
2497;DHT22;1259;48.306;14.374;2022-07-06T07:21:17;22.80;99.90
2497;DHT22;1259;48.306;14.374;2022-07-06T07:23:44;22.50;99.90
2497;DHT22;1259;48.306;14.374;2022-07-06T07:26:11;22.70;99.90
2497;DHT22;1259;48.306;14.374;2022-07-06T07:28:38;22.50;99.90
2497;DHT22;1259;48.306;14.374;2022-07-06T07:31:05;22.60;99.90
2497;DHT22;1259;48.306;14.374;2022-07-06T07:33:32;22.80;99.90
2497;DHT22;1259;48.306;14.374;2022-07-06T07:36:01;22.90;99.90
2497;DHT22;1259;48.306;14.374;2022-07-06T07:38:27;23.00;99.90
2497;DHT22;1259;48.306;14.374;2022-07-06T07:40:54;22.60;99.90
2497;DHT22;1259;48.306;14.374;2022-07-06T07:43:22;22.30;99.90
2497;DHT22;1259;48.306;14.374;2022-07-06T07:45:49;22.00;99.90
2497;DHT22;1259;48.306;14.374;2022-07-06T07:48:16;21.70;99.90
2497;DHT22;1259;48.306;14.374;2022-07-06T07:50:43;21.80;99.90
2497;DHT22;1259;48.306;14.374;2022-07-06T07:53:11;21.80;99.90
2497;DHT22;1259;48.306;14.374;2022-07-06T07:55:38;21.90;99.90
2497;DHT22;1259;48.306;14.374;2022-07-06T07:58:05;22.10;99.90
2497;DHT22;1259;48.306;14.374;2022-07-06T08:00:32;22.60;99.90
2497;DHT22;1259;48.306;14.374;2022-07-06T08:02:59;22.80;99.90
2497;DHT22;1259;48.306;14.374;2022-07-06T08:05:26;22.80;99.90
2497;DHT22;1259;48.306;14.374;2022-07-06T08:07:53;22.90;99.90
2497;DHT22;1259;48.306;14.374;2022-07-06T08:10:21;22.90;99.90
2497;DHT22;1259;48.306;14.374;2022-07-06T08:12:48;23.10;99.90
2497;DHT22;1259;48.306;14.374;2022-07-06T08:15:16;23.30;99.90
2497;DHT22;1259;48.306;14.374;2022-07-06T08:17:43;23.30;99.90
2497;DHT22;1259;48.306;14.374;2022-07-06T08:20:11;23.60;99.90
2497;DHT22;1259;48.306;14.374;2022-07-06T08:22:38;23.50;99.90
2497;DHT22;1259;48.306;14.374;2022-07-06T08:25:06;23.40;99.90
2497;DHT22;1259;48.306;14.374;2022-07-06T08:27:35;23.60;99.90
2497;DHT22;1259;48.306;14.374;2022-07-06T08:30:02;23.30;99.90
2497;DHT22;1259;48.306;14.374;2022-07-06T08:32:29;23.60;99.90
2497;DHT22;1259;48.306;14.374;2022-07-06T08:34:56;23.40;99.90
2497;DHT22;1259;48.306;14.374;2022-07-06T08:37:23;23.40;99.90
2497;DHT22;1259;48.306;14.374;2022-07-06T08:39:50;23.50;99.90
2497;DHT22;1259;48.306;14.374;2022-07-06T08:42:18;23.70;99.90
2497;DHT22;1259;48.306;14.374;2022-07-06T08:44:46;23.70;99.90
2497;DHT22;1259;48.306;14.374;2022-07-06T08:47:14;23.70;99.90
2497;DHT22;1259;48.306;14.374;2022-07-06T08:49:42;23.80;99.90
2497;DHT22;1259;48.306;14.374;2022-07-06T08:52:10;24.00;99.90
2497;DHT22;1259;48.306;14.374;2022-07-06T08:54:38;24.40;99.90
2497;DHT22;1259;48.306;14.374;2022-07-06T08:57:06;24.40;99.90
2497;DHT22;1259;48.306;14.374;2022-07-06T08:59:33;24.30;99.90
2497;DHT22;1259;48.306;14.374;2022-07-06T09:02:03;24.50;99.90
2497;DHT22;1259;48.306;14.374;2022-07-06T09:04:32;24.60;99.90
2497;DHT22;1259;48.306;14.374;2022-07-06T09:06:59;24.50;99.90
2497;DHT22;1259;48.306;14.374;2022-07-06T09:09:29;24.50;99.90
2497;DHT22;1259;48.306;14.374;2022-07-06T09:11:57;24.50;99.90
2497;DHT22;1259;48.306;14.374;2022-07-06T09:14:25;24.40;99.90
2497;DHT22;1259;48.306;14.374;2022-07-06T09:17:00;24.00;99.90
2497;DHT22;1259;48.306;14.374;2022-07-06T09:19:30;24.10;99.90
2497;DHT22;1259;48.306;14.374;2022-07-06T09:21:57;24.30;99.90
2497;DHT22;1259;48.306;14.374;2022-07-06T09:24:24;24.60;99.90
2497;DHT22;1259;48.306;14.374;2022-07-06T09:26:55;24.70;99.90
2497;DHT22;1259;48.306;14.374;2022-07-06T09:29:27;24.90;99.90
2497;DHT22;1259;48.306;14.374;2022-07-06T09:31:58;24.90;99.90
2497;DHT22;1259;48.306;14.374;2022-07-06T09:34:42;25.00;99.90
2497;DHT22;1259;48.306;14.374;2022-07-06T09:37:09;25.10;99.90
2497;DHT22;1259;48.306;14.374;2022-07-06T09:39:36;25.40;99.90
2497;DHT22;1259;48.306;14.374;2022-07-06T09:42:05;25.20;99.90
2497;DHT22;1259;48.306;14.374;2022-07-06T09:44:34;25.30;99.90
2497;DHT22;1259;48.306;14.374;2022-07-06T09:47:05;25.20;99.90
2497;DHT22;1259;48.306;14.374;2022-07-06T09:49:34;25.30;99.90
2497;DHT22;1259;48.306;14.374;2022-07-06T09:52:04;25.30;99.90
2497;DHT22;1259;48.306;14.374;2022-07-06T09:54:32;25.30;99.90
2497;DHT22;1259;48.306;14.374;2022-07-06T09:57:00;25.20;99.90
2497;DHT22;1259;48.306;14.374;2022-07-06T09:59:28;25.20;98.70
2497;DHT22;1259;48.306;14.374;2022-07-06T10:01:57;25.40;99.70
2497;DHT22;1259;48.306;14.374;2022-07-06T10:04:25;25.60;97.20
2497;DHT22;1259;48.306;14.374;2022-07-06T10:06:53;25.70;99.00
2497;DHT22;1259;48.306;14.374;2022-07-06T10:09:23;25.80;96.90
2497;DHT22;1259;48.306;14.374;2022-07-06T10:11:52;25.40;94.70
2497;DHT22;1259;48.306;14.374;2022-07-06T10:14:21;25.40;96.20
2497;DHT22;1259;48.306;14.374;2022-07-06T10:16:49;25.60;94.50
2497;DHT22;1259;48.306;14.374;2022-07-06T10:19:17;25.70;93.70
2497;DHT22;1259;48.306;14.374;2022-07-06T10:21:45;25.70;94.40
2497;DHT22;1259;48.306;14.374;2022-07-06T10:24:12;25.80;95.50
2497;DHT22;1259;48.306;14.374;2022-07-06T10:26:42;25.40;93.00
2497;DHT22;1259;48.306;14.374;2022-07-06T10:29:09;25.50;94.40
2497;DHT22;1259;48.306;14.374;2022-07-06T10:31:40;25.50;93.40
2497;DHT22;1259;48.306;14.374;2022-07-06T10:34:11;25.80;94.80
2497;DHT22;1259;48.306;14.374;2022-07-06T10:36:39;25.50;92.30
2497;DHT22;1259;48.306;14.374;2022-07-06T10:39:06;25.80;92.80
2497;DHT22;1259;48.306;14.374;2022-07-06T10:41:49;25.90;93.20
2497;DHT22;1259;48.306;14.374;2022-07-06T10:44:16;25.90;92.10
2497;DHT22;1259;48.306;14.374;2022-07-06T10:46:50;25.60;91.20
2497;DHT22;1259;48.306;14.374;2022-07-06T10:49:18;25.60;91.40
2497;DHT22;1259;48.306;14.374;2022-07-06T10:51:46;25.60;92.10
2497;DHT22;1259;48.306;14.374;2022-07-06T10:54:15;25.50;90.80
2497;DHT22;1259;48.306;14.374;2022-07-06T10:56:44;25.50;90.60
2497;DHT22;1259;48.306;14.374;2022-07-06T10:59:13;25.60;91.40
2497;DHT22;1259;48.306;14.374;2022-07-06T11:01:41;25.80;91.50
2497;DHT22;1259;48.306;14.374;2022-07-06T11:04:10;26.00;92.30
2497;DHT22;1259;48.306;14.374;2022-07-06T11:06:38;26.10;91.80
2497;DHT22;1259;48.306;14.374;2022-07-06T11:09:07;25.70;91.70
2497;DHT22;1259;48.306;14.374;2022-07-06T11:11:40;25.40;91.90
2497;DHT22;1259;48.306;14.374;2022-07-06T11:14:09;25.70;92.90
2497;DHT22;1259;48.306;14.374;2022-07-06T11:16:40;25.90;92.50
2497;DHT22;1259;48.306;14.374;2022-07-06T11:19:27;25.90;90.30
2497;DHT22;1259;48.306;14.374;2022-07-06T11:21:56;26.10;91.50
2497;DHT22;1259;48.306;14.374;2022-07-06T11:24:26;25.90;90.90
2497;DHT22;1259;48.306;14.374;2022-07-06T11:26:55;25.80;90.20
2497;DHT22;1259;48.306;14.374;2022-07-06T11:29:24;25.70;90.70
2497;DHT22;1259;48.306;14.374;2022-07-06T11:31:54;25.70;89.70
2497;DHT22;1259;48.306;14.374;2022-07-06T11:34:22;25.80;90.90
2497;DHT22;1259;48.306;14.374;2022-07-06T11:36:54;25.90;90.50
2497;DHT22;1259;48.306;14.374;2022-07-06T11:39:21;25.90;90.50
2497;DHT22;1259;48.306;14.374;2022-07-06T11:41:48;25.80;88.90
2497;DHT22;1259;48.306;14.374;2022-07-06T11:44:15;25.80;87.70
2497;DHT22;1259;48.306;14.374;2022-07-06T11:46:42;25.90;89.40
2497;DHT22;1259;48.306;14.374;2022-07-06T11:49:10;26.00;88.90
2497;DHT22;1259;48.306;14.374;2022-07-06T11:51:39;26.10;87.30
2497;DHT22;1259;48.306;14.374;2022-07-06T11:54:09;26.10;87.70
2497;DHT22;1259;48.306;14.374;2022-07-06T11:56:37;26.20;88.60
2497;DHT22;1259;48.306;14.374;2022-07-06T11:59:05;26.20;88.00
2497;DHT22;1259;48.306;14.374;2022-07-06T12:01:32;26.30;89.80
2497;DHT22;1259;48.306;14.374;2022-07-06T12:04:00;26.00;84.80
2497;DHT22;1259;48.306;14.374;2022-07-06T12:06:30;26.30;80.90
2497;DHT22;1259;48.306;14.374;2022-07-06T12:08:58;26.10;81.80
2497;DHT22;1259;48.306;14.374;2022-07-06T12:11:27;25.80;80.60
2497;DHT22;1259;48.306;14.374;2022-07-06T12:13:56;25.50;83.10
2497;DHT22;1259;48.306;14.374;2022-07-06T12:16:29;25.50;80.20
2497;DHT22;1259;48.306;14.374;2022-07-06T12:18:57;25.40;84.30
2497;DHT22;1259;48.306;14.374;2022-07-06T12:21:24;25.50;83.40
2497;DHT22;1259;48.306;14.374;2022-07-06T12:23:54;25.60;80.60
2497;DHT22;1259;48.306;14.374;2022-07-06T12:26:23;25.80;81.90
2497;DHT22;1259;48.306;14.374;2022-07-06T12:29:02;26.10;82.50
2497;DHT22;1259;48.306;14.374;2022-07-06T12:31:32;26.20;83.50
2497;DHT22;1259;48.306;14.374;2022-07-06T12:33:59;26.20;80.40
2497;DHT22;1259;48.306;14.374;2022-07-06T12:36:26;26.20;79.60
2497;DHT22;1259;48.306;14.374;2022-07-06T12:38:55;26.10;77.20
2497;DHT22;1259;48.306;14.374;2022-07-06T12:41:30;26.20;84.20
2497;DHT22;1259;48.306;14.374;2022-07-06T12:44:09;26.30;78.70
2497;DHT22;1259;48.306;14.374;2022-07-06T12:46:37;26.50;82.40
2497;DHT22;1259;48.306;14.374;2022-07-06T12:49:13;26.20;76.60
2497;DHT22;1259;48.306;14.374;2022-07-06T12:51:54;26.10;75.20
2497;DHT22;1259;48.306;14.374;2022-07-06T12:54:24;26.30;74.90
2497;DHT22;1259;48.306;14.374;2022-07-06T12:57:15;26.40;74.80
2497;DHT22;1259;48.306;14.374;2022-07-06T12:59:46;26.50;76.70
2497;DHT22;1259;48.306;14.374;2022-07-06T13:02:21;26.60;76.50
2497;DHT22;1259;48.306;14.374;2022-07-06T13:05:00;26.50;75.90
2497;DHT22;1259;48.306;14.374;2022-07-06T13:07:28;26.50;76.20
2497;DHT22;1259;48.306;14.374;2022-07-06T13:09:58;26.10;74.70
2497;DHT22;1259;48.306;14.374;2022-07-06T13:12:25;26.20;71.90
2497;DHT22;1259;48.306;14.374;2022-07-06T13:14:52;26.10;76.50
2497;DHT22;1259;48.306;14.374;2022-07-06T13:17:19;25.50;81.80
2497;DHT22;1259;48.306;14.374;2022-07-06T13:19:47;25.20;87.40
2497;DHT22;1259;48.306;14.374;2022-07-06T13:22:14;25.20;87.50
2497;DHT22;1259;48.306;14.374;2022-07-06T13:24:41;25.10;90.20
2497;DHT22;1259;48.306;14.374;2022-07-06T13:27:10;24.90;90.00
2497;DHT22;1259;48.306;14.374;2022-07-06T13:29:37;24.70;90.20
2497;DHT22;1259;48.306;14.374;2022-07-06T13:32:05;24.50;90.20
2497;DHT22;1259;48.306;14.374;2022-07-06T13:34:33;24.70;91.40
2497;DHT22;1259;48.306;14.374;2022-07-06T13:37:01;24.80;90.70
2497;DHT22;1259;48.306;14.374;2022-07-06T13:39:28;24.80;87.70
2497;DHT22;1259;48.306;14.374;2022-07-06T13:41:56;24.90;86.60
2497;DHT22;1259;48.306;14.374;2022-07-06T13:44:24;25.20;88.20
2497;DHT22;1259;48.306;14.374;2022-07-06T13:46:52;25.30;87.70
2497;DHT22;1259;48.306;14.374;2022-07-06T13:49:19;25.20;86.50
2497;DHT22;1259;48.306;14.374;2022-07-06T13:51:46;25.30;86.00
2497;DHT22;1259;48.306;14.374;2022-07-06T13:54:13;25.60;85.80
2497;DHT22;1259;48.306;14.374;2022-07-06T13:56:40;25.70;82.50
2497;DHT22;1259;48.306;14.374;2022-07-06T13:59:07;25.60;80.70
2497;DHT22;1259;48.306;14.374;2022-07-06T14:01:36;25.90;84.20
2497;DHT22;1259;48.306;14.374;2022-07-06T14:04:03;25.60;83.00
2497;DHT22;1259;48.306;14.374;2022-07-06T14:06:30;25.70;83.10
2497;DHT22;1259;48.306;14.374;2022-07-06T14:08:57;25.60;82.10
2497;DHT22;1259;48.306;14.374;2022-07-06T14:11:24;25.70;80.60
2497;DHT22;1259;48.306;14.374;2022-07-06T14:13:51;25.70;82.00
2497;DHT22;1259;48.306;14.374;2022-07-06T14:16:19;25.50;81.00
2497;DHT22;1259;48.306;14.374;2022-07-06T14:18:48;25.60;79.80
2497;DHT22;1259;48.306;14.374;2022-07-06T14:21:15;25.70;80.60
2497;DHT22;1259;48.306;14.374;2022-07-06T14:23:41;25.60;79.20
2497;DHT22;1259;48.306;14.374;2022-07-06T14:26:08;25.50;78.10
2497;DHT22;1259;48.306;14.374;2022-07-06T14:28:36;25.60;79.50
2497;DHT22;1259;48.306;14.374;2022-07-06T14:31:03;25.40;78.20
2497;DHT22;1259;48.306;14.374;2022-07-06T14:33:30;25.20;79.30
2497;DHT22;1259;48.306;14.374;2022-07-06T14:35:58;25.30;80.40
2497;DHT22;1259;48.306;14.374;2022-07-06T14:38:25;25.40;78.30
2497;DHT22;1259;48.306;14.374;2022-07-06T14:40:53;25.50;80.70
2497;DHT22;1259;48.306;14.374;2022-07-06T14:43:20;25.50;78.60
2497;DHT22;1259;48.306;14.374;2022-07-06T14:45:47;25.30;77.30
2497;DHT22;1259;48.306;14.374;2022-07-06T14:48:15;25.30;77.90
2497;DHT22;1259;48.306;14.374;2022-07-06T14:50:42;25.30;78.60
2497;DHT22;1259;48.306;14.374;2022-07-06T14:53:10;25.40;78.30
2497;DHT22;1259;48.306;14.374;2022-07-06T14:55:37;25.30;78.40
2497;DHT22;1259;48.306;14.374;2022-07-06T14:58:04;25.30;77.70
2497;DHT22;1259;48.306;14.374;2022-07-06T15:00:31;25.30;77.80
2497;DHT22;1259;48.306;14.374;2022-07-06T15:02:58;25.40;79.40
2497;DHT22;1259;48.306;14.374;2022-07-06T15:05:25;25.30;75.90
2497;DHT22;1259;48.306;14.374;2022-07-06T15:07:52;25.30;76.10
2497;DHT22;1259;48.306;14.374;2022-07-06T15:10:20;25.30;78.70
2497;DHT22;1259;48.306;14.374;2022-07-06T15:12:48;25.20;77.70
2497;DHT22;1259;48.306;14.374;2022-07-06T15:15:15;25.20;77.60
2497;DHT22;1259;48.306;14.374;2022-07-06T15:17:43;25.30;78.60
2497;DHT22;1259;48.306;14.374;2022-07-06T15:20:11;25.30;75.20
2497;DHT22;1259;48.306;14.374;2022-07-06T15:22:38;25.20;76.20
2497;DHT22;1259;48.306;14.374;2022-07-06T15:25:06;25.10;76.90
2497;DHT22;1259;48.306;14.374;2022-07-06T15:27:35;25.20;78.50
2497;DHT22;1259;48.306;14.374;2022-07-06T15:30:02;25.20;75.80
2497;DHT22;1259;48.306;14.374;2022-07-06T15:32:29;24.90;73.00
2497;DHT22;1259;48.306;14.374;2022-07-06T15:34:56;24.90;75.00
2497;DHT22;1259;48.306;14.374;2022-07-06T15:37:23;24.80;75.10
2497;DHT22;1259;48.306;14.374;2022-07-06T15:39:50;24.70;75.30
2497;DHT22;1259;48.306;14.374;2022-07-06T15:42:17;24.70;76.30
2497;DHT22;1259;48.306;14.374;2022-07-06T15:44:45;24.70;76.10
2497;DHT22;1259;48.306;14.374;2022-07-06T15:47:14;24.70;73.60
2497;DHT22;1259;48.306;14.374;2022-07-06T15:49:41;24.80;76.70